createdAt,value
2018-12-19T00:01:23.305Z,-0.70
2018-12-19T00:03:57.509Z,-0.70
2018-12-19T00:06:37.075Z,-0.60
2018-12-19T00:09:13.654Z,-0.60
2018-12-19T00:11:47.411Z,-0.60
2018-12-19T00:17:28.229Z,-0.60
2018-12-19T00:20:09.012Z,-0.60
2018-12-19T00:22:42.649Z,-0.60
2018-12-19T00:25:16.141Z,-0.60
2018-12-19T00:30:35.335Z,-0.50
2018-12-19T00:33:13.078Z,-0.50
2018-12-19T00:35:52.485Z,-0.50
2018-12-19T00:41:58.079Z,-0.40
2018-12-19T00:44:38.669Z,0.00
2018-12-19T00:47:09.154Z,0.10
2018-12-19T00:49:46.710Z,0.20
2018-12-19T00:52:24.228Z,0.40
2018-12-19T00:54:54.855Z,0.40
2018-12-19T00:57:32.351Z,0.40
2018-12-19T01:00:03.566Z,0.30
2018-12-19T01:02:41.135Z,0.30
2018-12-19T01:05:20.026Z,0.10
2018-12-19T01:08:00.811Z,-0.10
2018-12-19T01:10:34.841Z,-0.20
2018-12-19T01:13:13.187Z,-0.20
2018-12-19T01:15:43.950Z,-0.30
2018-12-19T01:18:16.709Z,-0.30
2018-12-19T01:20:51.288Z,-0.30
2018-12-19T01:23:23.793Z,-0.30
2018-12-19T01:26:14.507Z,-0.30
2018-12-19T01:28:53.034Z,-0.30
2018-12-19T01:31:27.463Z,-0.20
2018-12-19T01:34:04.886Z,-0.20
2018-12-19T01:36:38.414Z,-0.20
2018-12-19T01:39:11.033Z,-0.30
2018-12-19T01:41:40.724Z,-0.30
2018-12-19T01:44:19.000Z,-0.30
2018-12-19T01:46:57.865Z,-0.30
2018-12-19T01:49:32.392Z,-0.30
2018-12-19T01:52:05.946Z,-0.30
2018-12-19T01:54:40.361Z,-0.30
2018-12-19T01:57:29.883Z,-0.30
2018-12-19T02:00:03.664Z,-0.20
2018-12-19T02:02:43.237Z,-0.30
2018-12-19T02:05:22.849Z,-0.30
2018-12-19T02:07:57.404Z,-0.40
2018-12-19T02:10:31.923Z,-0.40
2018-12-19T02:13:02.490Z,-0.50
2018-12-19T02:15:32.958Z,-0.60
2018-12-19T02:18:06.692Z,-0.70
2018-12-19T02:20:44.978Z,-0.70
2018-12-19T02:23:23.336Z,-0.80
2018-12-19T02:25:56.149Z,-0.90
2018-12-19T02:28:50.610Z,-0.90
2018-12-19T02:31:52.048Z,-1.00
2018-12-19T02:34:29.302Z,-0.90
2018-12-19T02:37:03.940Z,-0.70
2018-12-19T02:39:37.399Z,-0.70
2018-12-19T02:42:09.918Z,-0.60
2018-12-19T02:44:45.421Z,-0.60
2018-12-19T02:47:18.987Z,-0.60
2018-12-19T02:50:02.967Z,-0.60
2018-12-19T02:52:36.820Z,-0.60
2018-12-19T02:55:14.718Z,-0.60
2018-12-19T02:57:49.271Z,-0.70
2018-12-19T03:00:26.855Z,-0.80
2018-12-19T03:03:05.110Z,-0.90
2018-12-19T03:05:35.940Z,-1.00
2018-12-19T03:08:16.529Z,-1.10
2018-12-19T03:10:54.826Z,-1.10
2018-12-19T03:13:28.585Z,-1.20
2018-12-19T03:16:07.482Z,-1.20
2018-12-19T03:18:40.741Z,-1.20
2018-12-19T03:21:15.681Z,-1.30
2018-12-19T03:23:53.809Z,-1.30
2018-12-19T03:26:27.417Z,-1.40
2018-12-19T03:32:21.952Z,-1.50
2018-12-19T03:35:00.258Z,-1.50
2018-12-19T03:37:35.416Z,-1.50
2018-12-19T03:40:14.106Z,-1.50
2018-12-19T03:42:55.016Z,-1.50
2018-12-19T03:45:25.820Z,-1.50
2018-12-19T03:48:13.490Z,-1.50
2018-12-19T03:52:40.866Z,-1.60
2018-12-19T03:55:32.669Z,-1.60
2018-12-19T06:00:22.066Z,-2.90
2018-12-19T06:06:21.038Z,-2.80
2018-12-19T06:12:54.326Z,-2.60
2018-12-19T06:33:03.260Z,-2.40
2018-12-19T06:35:38.255Z,-2.30
2018-12-19T06:38:11.931Z,-2.30
2018-12-19T06:40:50.952Z,-2.20
2018-12-19T06:43:28.278Z,-2.30
2018-12-19T06:46:02.238Z,-2.20
2018-12-19T07:02:27.805Z,-2.00
2018-12-19T07:05:10.389Z,-2.00
2018-12-19T07:07:46.865Z,-1.90
2018-12-19T07:10:24.796Z,-1.90
2018-12-19T07:13:02.889Z,-1.80
2018-12-19T07:15:40.757Z,-1.80
2018-12-19T07:18:11.487Z,-1.80
2018-12-19T07:20:46.414Z,-1.70
2018-12-19T07:23:24.750Z,-1.60
2018-12-19T07:25:58.038Z,-1.50
2018-12-19T07:28:30.615Z,-1.50
2018-12-19T07:31:08.562Z,-1.40
2018-12-19T07:33:40.548Z,-1.30
2018-12-19T07:36:17.544Z,-1.30
2018-12-19T07:38:56.005Z,-1.30
2018-12-19T07:41:29.483Z,-1.20
2018-12-19T07:44:07.473Z,-1.00
2018-12-19T07:46:44.499Z,-0.90
2018-12-19T07:49:21.438Z,-0.60
2018-12-19T07:51:54.401Z,-0.60
2018-12-19T07:54:27.344Z,-0.30
2018-12-19T07:57:05.350Z,-0.20
2018-12-19T07:59:35.284Z,-0.30
2018-12-19T08:02:05.146Z,-0.20
2018-12-19T08:04:35.750Z,-0.20
2018-12-19T08:07:04.934Z,-0.20
2018-12-19T08:09:37.901Z,-0.10
2018-12-19T08:12:15.875Z,0.00
2018-12-19T08:14:45.683Z,0.20
2018-12-19T08:17:20.263Z,0.30
2018-12-19T08:19:58.307Z,0.30
2018-12-19T08:22:32.583Z,0.60
2018-12-19T08:25:06.657Z,0.60
2018-12-19T08:27:39.542Z,0.80
2018-12-19T08:30:16.518Z,0.70
2018-12-19T08:32:49.538Z,0.70
2018-12-19T08:35:20.335Z,0.70
2018-12-19T08:37:53.382Z,0.90
2018-12-19T08:40:32.410Z,1.00
2018-12-19T08:43:07.086Z,1.20
2018-12-19T08:45:41.088Z,1.40
2018-12-19T08:48:19.332Z,1.70
2018-12-19T08:50:56.315Z,1.80
2018-12-19T08:53:33.302Z,1.80
2018-12-19T08:56:10.341Z,1.80
2018-12-19T08:58:44.997Z,2.00
2018-12-19T09:01:15.177Z,2.30
2018-12-19T09:03:49.126Z,2.50
2018-12-19T09:06:19.079Z,2.30
2018-12-19T09:08:56.025Z,2.40
2018-12-19T09:11:26.695Z,2.20
2018-12-19T09:14:00.610Z,2.30
2018-12-19T09:16:33.845Z,2.40
2018-12-19T09:19:10.840Z,2.60
2018-12-19T09:21:43.784Z,2.80
2018-12-19T09:24:16.737Z,2.80
2018-12-19T09:26:53.724Z,2.80
2018-12-19T09:29:33.383Z,2.80
2018-12-19T09:32:04.842Z,2.90
2018-12-19T09:34:42.687Z,2.70
2018-12-19T09:37:16.641Z,2.60
2018-12-19T09:39:47.848Z,2.90
2018-12-19T09:42:22.250Z,3.40
2018-12-19T09:44:55.477Z,3.50
2018-12-19T09:47:29.316Z,3.40
2018-12-19T09:50:07.135Z,3.40
2018-12-19T09:52:40.314Z,3.60
2018-12-19T09:55:13.338Z,3.10
2018-12-19T09:57:47.298Z,3.40
2018-12-19T10:00:22.275Z,3.20
2018-12-19T10:02:56.968Z,3.30
2018-12-19T10:05:35.082Z,3.30
2018-12-19T10:08:06.206Z,3.20
2018-12-19T10:10:39.976Z,3.10
2018-12-19T10:13:17.918Z,3.20
2018-12-19T10:15:55.157Z,3.20
2018-12-19T10:18:33.609Z,3.20
2018-12-19T10:21:10.146Z,3.00
2018-12-19T10:23:48.883Z,3.10
2018-12-19T10:26:20.446Z,3.60
2018-12-19T10:28:50.929Z,3.60
2018-12-19T10:31:29.765Z,3.70
2018-12-19T10:34:02.982Z,4.30
2018-12-19T10:36:40.832Z,4.90
2018-12-19T10:39:18.767Z,4.80
2018-12-19T10:41:56.043Z,5.10
2018-12-19T10:44:29.991Z,5.20
2018-12-19T10:46:59.932Z,5.20
2018-12-19T10:49:30.584Z,5.00
2018-12-19T10:52:09.843Z,5.10
2018-12-19T10:54:42.794Z,5.10
2018-12-19T10:57:20.822Z,5.00
2018-12-19T10:59:53.741Z,5.00
2018-12-19T11:02:32.465Z,5.00
2018-12-19T11:05:10.790Z,5.40
2018-12-19T11:07:47.751Z,5.50
2018-12-19T11:10:26.265Z,5.90
2018-12-19T11:13:09.894Z,5.60
2018-12-19T11:15:39.864Z,5.40
2018-12-19T11:18:16.819Z,5.50
2018-12-19T11:21:08.014Z,4.90
2018-12-19T11:23:47.072Z,4.60
2018-12-19T11:26:24.756Z,4.50
2018-12-19T11:28:58.066Z,4.30
2018-12-19T11:31:37.761Z,4.40
2018-12-19T11:34:11.923Z,4.10
2018-12-19T11:36:50.769Z,4.00
2018-12-19T11:39:20.958Z,4.30
2018-12-19T11:41:57.959Z,4.10
2018-12-19T11:47:39.841Z,3.80
2018-12-19T11:50:18.585Z,3.50
2018-12-19T11:52:52.010Z,3.50
2018-12-19T11:55:34.288Z,3.40
2018-12-19T11:58:09.083Z,3.40
2018-12-19T12:00:52.457Z,3.50
2018-12-19T12:03:26.419Z,3.60
2018-12-19T12:06:05.148Z,3.60
2018-12-19T12:08:42.141Z,3.60
2018-12-19T12:11:21.194Z,3.70
2018-12-19T12:14:01.512Z,3.70
2018-12-19T12:23:29.709Z,3.70
2018-12-19T12:25:58.763Z,3.60
2018-12-19T12:28:35.597Z,3.80
2018-12-19T12:31:12.606Z,3.40
2018-12-19T12:33:42.416Z,3.00
2018-12-19T12:39:42.125Z,2.20
2018-12-19T12:42:15.061Z,2.20
2018-12-19T12:44:51.951Z,2.20
2018-12-19T12:47:25.750Z,2.30
2018-12-19T12:49:59.013Z,2.30
2018-12-19T12:52:31.954Z,2.40
2018-12-19T12:55:05.910Z,2.50
2018-12-19T12:57:36.523Z,2.30
2018-12-19T13:00:10.625Z,2.30
2018-12-19T13:02:43.639Z,2.30
2018-12-19T13:05:22.029Z,2.20
2018-12-19T13:07:55.627Z,2.10
2018-12-19T13:10:27.908Z,2.10
2018-12-19T13:13:04.707Z,2.10
2018-12-19T13:15:47.514Z,2.00
2018-12-19T13:18:21.569Z,2.00
2018-12-19T13:20:54.709Z,2.00
2018-12-19T13:23:24.517Z,1.90
2018-12-19T13:25:57.567Z,1.70
2018-12-19T13:28:30.532Z,1.60
2018-12-19T13:31:07.535Z,1.60
2018-12-19T13:33:44.450Z,1.50
2018-12-19T13:36:17.460Z,1.40
2018-12-19T13:38:47.985Z,1.40
2018-12-19T13:41:17.350Z,1.40
2018-12-19T13:43:54.351Z,1.30
2018-12-19T13:46:28.022Z,1.30
2018-12-19T13:49:06.043Z,1.10
2018-12-19T13:51:43.331Z,1.10
2018-12-19T13:54:16.150Z,1.00
2018-12-19T13:56:49.269Z,1.00
2018-12-19T13:59:26.939Z,1.00
2018-12-19T14:01:56.129Z,0.90
2018-12-19T14:04:28.001Z,0.80
2018-12-19T14:10:27.655Z,0.90
2018-12-19T14:13:01.597Z,0.70
2018-12-19T14:15:31.521Z,0.70
2018-12-19T14:18:02.399Z,0.60
2018-12-19T14:20:39.454Z,0.60
2018-12-19T14:23:14.005Z,0.50
2018-12-19T14:25:51.424Z,0.50
2018-12-19T14:28:25.375Z,0.50
2018-12-19T14:31:03.398Z,0.40
2018-12-19T14:33:37.358Z,0.40
2018-12-19T14:36:08.701Z,0.30
2018-12-19T14:38:42.825Z,0.20
2018-12-19T14:41:16.171Z,0.30
2018-12-19T14:43:49.694Z,0.20
2018-12-19T14:46:25.130Z,0.10
2018-12-19T14:49:14.160Z,0.10
2018-12-19T14:51:48.125Z,0.00
2018-12-19T14:54:21.162Z,0.00
2018-12-19T14:56:55.818Z,0.00
2018-12-19T14:59:26.015Z,0.00
2018-12-19T15:01:59.991Z,0.00
2018-12-19T15:04:34.865Z,0.00
2018-12-19T15:07:11.934Z,-0.10
2018-12-19T15:09:50.521Z,-0.10
2018-12-19T15:12:28.970Z,-0.10
2018-12-19T15:15:08.883Z,-0.20
2018-12-19T15:17:47.002Z,-0.20
2018-12-19T15:20:35.240Z,-0.30
2018-12-19T15:23:14.147Z,-0.30
2018-12-19T15:25:43.974Z,-0.40
2018-12-19T15:28:16.907Z,-0.40
2018-12-19T15:30:49.949Z,-0.40
2018-12-19T15:33:27.898Z,-0.40
2018-12-19T15:36:01.610Z,-0.40
2018-12-19T15:38:38.885Z,-0.40
2018-12-19T15:41:12.556Z,-0.40
2018-12-19T15:43:49.833Z,-0.40
2018-12-19T15:46:28.566Z,-0.40
2018-12-19T15:48:58.663Z,-0.40
2018-12-19T15:51:28.572Z,-0.30
2018-12-19T15:54:01.597Z,-0.30
2018-12-19T15:56:31.382Z,-0.30
2018-12-19T15:59:01.292Z,-0.30
2018-12-19T16:01:32.237Z,-0.20
2018-12-19T16:04:05.124Z,-0.20
2018-12-19T16:06:42.229Z,-0.20
2018-12-19T16:09:19.116Z,-0.20
2018-12-19T16:11:49.037Z,-0.30
2018-12-19T16:17:27.384Z,-0.40
2018-12-19T16:19:56.433Z,-0.30
2018-12-19T16:22:26.027Z,-0.40
2018-12-19T16:28:29.739Z,-0.40
2018-12-19T16:31:00.323Z,-0.40
2018-12-19T16:33:37.658Z,-0.40
2018-12-19T16:36:10.496Z,-0.40
2018-12-19T16:38:47.417Z,-0.40
2018-12-19T16:41:24.534Z,-0.30
2018-12-19T16:47:23.058Z,-0.30
2018-12-19T16:53:18.547Z,-0.30
2018-12-19T16:55:55.524Z,-0.30
2018-12-19T16:58:25.385Z,-0.30
2018-12-19T17:01:02.306Z,-0.30
2018-12-19T17:03:39.257Z,-0.30
2018-12-19T17:06:09.145Z,-0.30
2018-12-19T17:08:42.075Z,-0.30
2018-12-19T17:11:19.048Z,-0.20
2018-12-19T17:13:56.015Z,-0.30
2018-12-19T17:16:32.759Z,-0.30
2018-12-19T17:19:09.970Z,-0.30
2018-12-19T17:21:42.963Z,-0.30
2018-12-19T17:24:15.957Z,-0.30
2018-12-19T17:26:49.761Z,-0.30
2018-12-19T17:29:19.647Z,-0.30
2018-12-19T17:31:52.392Z,-0.30
2018-12-19T17:34:26.506Z,-0.30
2018-12-19T17:36:59.569Z,-0.30
2018-12-19T17:39:32.497Z,-0.30
2018-12-19T17:42:05.420Z,-0.40
2018-12-19T17:44:42.286Z,-0.40
2018-12-19T17:47:19.418Z,-0.30
2018-12-19T17:49:52.304Z,-0.30
2018-12-19T17:52:27.254Z,-0.30
2018-12-19T17:55:01.192Z,-0.30
2018-12-19T17:57:35.146Z,-0.30
2018-12-19T18:00:06.043Z,-0.30
2018-12-19T18:02:43.023Z,-0.30
2018-12-19T18:05:20.150Z,-0.30
2018-12-19T18:07:57.703Z,-0.30
2018-12-19T18:10:30.894Z,-0.30
2018-12-19T18:13:06.056Z,-0.30
2018-12-19T18:15:32.609Z,-0.30
2018-12-19T18:18:02.620Z,-0.30
2018-12-19T18:20:33.385Z,-0.30
2018-12-19T18:23:08.681Z,-0.30
2018-12-19T18:25:40.282Z,-0.20
2018-12-19T18:28:19.386Z,-0.20
2018-12-19T18:30:53.331Z,-0.20
2018-12-19T18:33:23.098Z,-0.20
2018-12-19T18:35:56.881Z,-0.20
2018-12-19T18:38:34.147Z,-0.20
2018-12-19T18:41:04.037Z,-0.30
2018-12-19T18:43:38.694Z,-0.20
2018-12-19T18:46:17.035Z,-0.20
2018-12-19T18:49:35.814Z,-0.30
2018-12-19T18:52:36.050Z,-0.30
2018-12-19T18:55:14.453Z,-0.20
2018-12-19T18:57:53.706Z,-0.20
2018-12-19T19:00:34.826Z,-0.20
2018-12-19T19:03:08.796Z,-0.20
2018-12-19T19:05:48.758Z,-0.20
2018-12-19T19:08:22.738Z,-0.20
2018-12-19T19:10:53.298Z,-0.30
2018-12-19T19:13:33.310Z,-0.30
2018-12-19T19:16:03.538Z,-0.30
2018-12-19T19:18:37.442Z,-0.30
2018-12-19T19:21:11.419Z,-0.30
2018-12-19T19:23:45.330Z,-0.30
2018-12-19T19:26:15.957Z,-0.40
2018-12-19T19:28:53.245Z,-0.40
2018-12-19T19:31:25.848Z,-0.30
2018-12-19T19:34:27.806Z,-0.30
2018-12-19T19:37:20.818Z,-0.30
2018-12-19T19:43:15.611Z,-0.30
2018-12-19T19:46:08.902Z,-0.30
2018-12-19T19:48:39.173Z,-0.30
2018-12-19T19:51:16.906Z,-0.30
2018-12-19T19:53:54.174Z,-0.40
2018-12-19T19:56:32.168Z,-0.50
2018-12-19T19:59:09.904Z,-0.50
2018-12-19T20:01:43.066Z,-0.50
2018-12-19T20:04:21.091Z,-0.40
2018-12-19T20:07:00.885Z,-0.50
2018-12-19T20:10:06.784Z,-0.60
2018-12-19T20:12:45.823Z,-0.60
2018-12-19T20:15:21.101Z,-0.60
2018-12-19T20:18:41.770Z,-0.60
2018-12-19T20:22:00.475Z,-0.70
2018-12-19T20:24:35.282Z,-0.70
2018-12-19T20:27:13.356Z,-0.70
2018-12-19T20:29:52.060Z,-0.70
2018-12-19T20:32:22.257Z,-0.70
2018-12-19T20:34:56.126Z,-0.70
2018-12-19T20:37:32.879Z,-0.70
2018-12-19T20:40:11.189Z,-0.80
2018-12-19T20:52:47.463Z,-0.80
2018-12-19T20:55:17.621Z,-0.80
2018-12-19T20:57:54.743Z,-0.80
2018-12-19T21:00:33.561Z,-0.70
2018-12-19T21:03:12.592Z,-0.70
2018-12-19T21:05:43.247Z,-0.60
2018-12-19T21:08:23.258Z,-0.70
2018-12-19T21:11:01.262Z,-0.70
2018-12-19T21:13:32.149Z,-0.80
2018-12-19T21:16:02.302Z,-0.70
2018-12-19T21:18:50.121Z,-0.70
2018-12-19T21:21:31.284Z,-0.70
2018-12-19T21:27:44.943Z,-0.90
2018-12-19T21:30:18.911Z,-0.90
2018-12-19T21:32:57.713Z,-0.90
2018-12-19T21:35:35.892Z,-0.90
2018-12-19T21:38:18.207Z,-0.90
2018-12-19T21:40:49.684Z,-0.90
2018-12-19T21:43:31.918Z,-0.80
2018-12-19T21:46:12.498Z,-0.90
2018-12-19T21:55:12.014Z,-0.90
2018-12-19T21:57:50.741Z,-0.90
2018-12-19T22:00:35.282Z,-1.00
2018-12-19T22:09:53.177Z,-1.20
2018-12-19T22:13:01.635Z,-1.30
2018-12-19T22:22:48.099Z,-1.60
2018-12-19T22:25:40.608Z,-1.60
2018-12-19T22:28:41.507Z,-1.60
2018-12-19T22:31:49.687Z,-1.60
2018-12-19T22:34:57.367Z,-1.60
2018-12-19T22:37:36.250Z,-1.60
2018-12-19T22:40:13.030Z,-1.70
2018-12-19T23:00:08.595Z,-1.60
2018-12-19T23:03:00.139Z,-1.60
2018-12-19T23:05:54.998Z,-1.60
2018-12-19T23:19:12.685Z,-1.80
2018-12-19T23:21:47.535Z,-1.70
2018-12-19T23:25:04.330Z,-1.70
2018-12-19T23:27:59.571Z,-1.70
